Time;durP1;ratioP1;P1;durP2;ratioP2;P2;SDS_P1;SDS_P2;PMS_P1;PMS_P2;Temp;Humidity;BMP_temperature;BMP_pressure;BME280_temperature;BME280_humidity;BME280_pressure;Samples;Min_cycle;Max_cycle;Signal;HPM_P1;HPM_P2
2022/03/12 00:01:42;;;;;;;13.88;10.63;;;5.90;66.60;;;;;;5044156;28;20056;-78
2022/03/12 00:04:08;;;;;;;12.32;9.27;;;6.00;66.40;;;;;;5047677;28;20021;-78
2022/03/12 00:06:34;;;;;;;11.75;9.95;;;6.10;66.10;;;;;;5048909;28;20071;-78
2022/03/12 00:09:00;;;;;;;14.90;10.10;;;6.10;65.80;;;;;;5043901;28;20032;-76
2022/03/12 00:11:27;;;;;;;12.98;9.75;;;6.10;65.80;;;;;;5041586;28;20536;-76
2022/03/12 00:13:55;;;;;;;17.58;11.07;;;6.00;66.20;;;;;;5053803;28;20030;-76
2022/03/12 00:16:26;;;;;;;18.35;8.55;;;5.90;66.20;;;;;;5033701;28;20025;-75
2022/03/12 00:18:55;;;;;;;12.18;9.93;;;5.90;66.50;;;;;;5053298;28;20025;-77
2022/03/12 00:21:23;;;;;;;14.68;10.52;;;5.80;66.60;;;;;;5028050;28;20105;-77
2022/03/12 00:23:50;;;;;;;14.70;9.77;;;5.90;66.30;;;;;;5044800;28;20032;-75
2022/03/12 00:26:17;;;;;;;15.23;9.80;;;5.90;66.50;;;;;;5033581;28;20160;-76
2022/03/12 00:28:44;;;;;;;14.65;9.10;;;5.80;66.80;;;;;;5048823;28;20021;-73
2022/03/12 00:31:11;;;;;;;16.23;10.30;;;5.80;67.00;;;;;;5020278;28;20028;-77
2022/03/12 00:33:37;;;;;;;15.27;10.13;;;5.80;66.80;;;;;;5020623;28;20021;-75
2022/03/12 00:36:03;;;;;;;14.88;9.80;;;5.80;66.80;;;;;;5039236;28;20037;-76
2022/03/12 00:38:29;;;;;;;14.27;9.13;;;5.80;67.00;;;;;;5023044;28;20029;-76
2022/03/12 00:40:55;;;;;;;9.30;7.93;;;5.90;66.70;;;;;;5044734;28;20044;-76
2022/03/12 00:43:21;;;;;;;14.82;9.07;;;6.10;65.90;;;;;;5027605;28;20021;-75
2022/03/12 00:45:47;;;;;;;13.38;9.88;;;6.20;66.10;;;;;;5030197;28;20018;-74
2022/03/12 00:48:13;;;;;;;14.23;9.07;;;6.00;66.50;;;;;;5024324;28;20417;-76
2022/03/12 00:50:40;;;;;;;12.20;9.63;;;5.80;66.80;;;;;;5025789;28;20034;-75
2022/03/12 00:53:05;;;;;;;15.30;9.80;;;5.80;66.80;;;;;;5030527;28;20116;-75
2022/03/12 00:55:32;;;;;;;12.07;9.10;;;5.80;66.90;;;;;;5022922;28;20100;-75
2022/03/12 00:57:58;;;;;;;13.75;9.10;;;5.70;67.70;;;;;;5045749;28;20032;-75
2022/03/12 01:00:25;;;;;;;19.48;9.68;;;5.70;67.40;;;;;;5029632;28;20485;-75
2022/03/12 01:02:51;;;;;;;10.65;9.05;;;5.60;67.60;;;;;;5041623;28;20018;-76
2022/03/12 01:05:20;;;;;;;11.52;9.68;;;5.80;67.00;;;;;;5024823;28;20032;-76
2022/03/12 01:07:46;;;;;;;11.38;8.70;;;5.90;66.50;;;;;;5030504;28;20132;-76
2022/03/12 01:10:12;;;;;;;13.80;9.30;;;6.00;66.10;;;;;;5034345;28;20053;-75
2022/03/12 01:12:38;;;;;;;11.57;8.25;;;6.10;65.90;;;;;;5044515;28;20086;-77
2022/03/12 01:15:06;;;;;;;10.73;9.25;;;6.20;65.50;;;;;;5037150;28;20556;-77
2022/03/12 01:17:33;;;;;;;10.52;9.10;;;6.20;65.40;;;;;;5028961;28;20401;-76
2022/03/12 01:20:00;;;;;;;15.63;8.52;;;6.00;66.20;;;;;;5029077;28;20080;-75
2022/03/12 01:22:29;;;;;;;13.50;9.07;;;5.80;66.20;;;;;;5032221;28;20030;-77
2022/03/12 01:24:55;;;;;;;10.55;9.00;;;6.00;66.00;;;;;;5024251;28;20371;-76
2022/03/12 01:27:20;;;;;;;17.23;9.90;;;5.90;66.20;;;;;;5023832;28;20032;-76
2022/03/12 01:29:46;;;;;;;10.98;7.95;;;5.90;66.10;;;;;;5047038;28;20053;-76
2022/03/12 01:32:12;;;;;;;11.95;9.07;;;5.90;65.80;;;;;;5031434;28;20028;-76
2022/03/12 01:34:38;;;;;;;10.82;8.48;;;5.80;66.10;;;;;;5032244;28;20022;-76
2022/03/12 01:37:04;;;;;;;11.35;8.80;;;5.80;65.80;;;;;;5046212;28;20403;-76
2022/03/12 01:39:30;;;;;;;10.43;8.43;;;5.80;66.20;;;;;;5047405;28;20478;-76
2022/03/12 01:41:56;;;;;;;11.93;8.85;;;5.90;65.80;;;;;;5031382;28;20032;-76
2022/03/12 01:44:22;;;;;;;11.38;9.23;;;5.90;65.80;;;;;;5031637;28;20022;-76
2022/03/12 01:46:49;;;;;;;11.40;8.45;;;5.80;66.30;;;;;;5028465;28;20028;-76
2022/03/12 01:49:23;;;;;;;18.80;9.25;;;5.80;66.00;;;;;;5030247;28;20087;-76
2022/03/12 01:51:51;;;;;;;11.73;8.88;;;5.80;66.10;;;;;;5029952;28;20444;-77
2022/03/12 01:54:28;;;;;;;12.77;7.93;;;5.70;66.30;;;;;;5046304;28;20029;-76
2022/03/12 01:56:55;;;;;;;13.85;8.55;;;5.70;66.40;;;;;;5046317;28;20030;-76
2022/03/12 01:59:21;;;;;;;11.27;9.23;;;5.60;66.40;;;;;;5027804;28;20053;-76
2022/03/12 02:01:51;;;;;;;10.07;8.38;;;5.70;66.40;;;;;;5020226;28;20107;-76
2022/03/12 02:04:19;;;;;;;15.13;9.27;;;5.60;66.40;;;;;;5044968;28;20022;-76
2022/03/12 02:06:46;;;;;;;15.05;9.75;;;5.50;67.00;;;;;;5045045;28;20116;-75
2022/03/12 02:09:16;;;;;;;11.40;8.65;;;5.50;67.00;;;;;;5018365;28;20038;-75
2022/03/12 02:11:51;;;;;;;10.27;8.43;;;5.50;66.90;;;;;;5025641;28;20080;-75
2022/03/12 02:14:19;;;;;;;13.20;8.65;;;5.40;67.00;;;;;;5030976;28;20037;-75
2022/03/12 02:16:48;;;;;;;12.13;8.70;;;5.60;66.80;;;;;;5030566;28;20029;-75
2022/03/12 02:19:14;;;;;;;9.35;8.15;;;5.70;66.50;;;;;;5029903;28;20266;-76
2022/03/12 02:21:49;;;;;;;17.73;8.57;;;5.80;66.10;;;;;;5046357;28;20039;-76
2022/03/12 02:24:17;;;;;;;13.60;9.13;;;6.00;65.50;;;;;;5028438;28;20029;-76
2022/03/12 02:26:44;;;;;;;11.93;8.65;;;6.10;65.30;;;;;;5031549;28;20034;-75
2022/03/12 02:29:12;;;;;;;11.85;9.20;;;6.00;65.90;;;;;;5046341;28;20025;-76
2022/03/12 02:31:40;;;;;;;11.95;8.63;;;6.00;65.20;;;;;;5032668;28;20033;-75
2022/03/12 02:34:07;;;;;;;14.82;9.80;;;6.00;65.10;;;;;;5046229;28;20028;-74
2022/03/12 02:36:33;;;;;;;12.82;9.18;;;6.00;65.20;;;;;;5034983;28;20124;-75
2022/03/12 02:39:05;;;;;;;11.10;9.00;;;6.00;65.40;;;;;;5032969;28;20033;-76
2022/03/12 02:41:31;;;;;;;9.77;7.70;;;5.90;65.40;;;;;;5030545;28;20554;-75
2022/03/12 02:43:57;;;;;;;16.05;8.93;;;5.70;66.10;;;;;;5026112;28;20168;-75
2022/03/12 02:46:31;;;;;;;13.15;8.95;;;5.70;66.20;;;;;;5045185;28;20024;-76
2022/03/12 02:48:57;;;;;;;10.27;7.78;;;5.50;66.30;;;;;;5033453;28;20104;-75
2022/03/12 02:51:23;;;;;;;14.57;8.40;;;5.60;66.50;;;;;;5034326;28;20052;-77
2022/03/12 02:53:56;;;;;;;9.25;8.13;;;5.80;65.90;;;;;;5034172;28;20036;-75
2022/03/12 02:56:23;;;;;;;13.98;9.05;;;5.80;65.80;;;;;;5049767;28;20448;-75
2022/03/12 02:58:49;;;;;;;10.23;8.40;;;5.80;66.20;;;;;;5031806;28;20122;-76
2022/03/12 03:01:15;;;;;;;11.90;8.95;;;5.70;66.10;;;;;;5034867;28;20031;-76
2022/03/12 03:03:42;;;;;;;14.27;8.95;;;5.80;66.20;;;;;;5026113;28;20017;-76
2022/03/12 03:06:09;;;;;;;13.82;8.65;;;5.80;66.30;;;;;;5026271;28;20025;-76
2022/03/12 03:08:36;;;;;;;9.35;7.47;;;5.70;66.60;;;;;;5034221;28;20021;-76
2022/03/12 03:11:10;;;;;;;12.65;8.90;;;5.70;66.70;;;;;;5049706;28;20577;-76
2022/03/12 03:13:38;;;;;;;13.00;9.02;;;5.60;67.00;;;;;;5031684;28;20087;-76
2022/03/12 03:16:08;;;;;;;13.35;8.73;;;5.70;67.00;;;;;;5043933;28;20088;-75
2022/03/12 03:18:39;;;;;;;11.70;7.73;;;5.70;66.80;;;;;;5033546;28;20021;-77
2022/03/12 03:21:13;;;;;;;14.88;10.27;;;5.80;66.80;;;;;;5033630;28;20501;-76
2022/03/12 03:23:38;;;;;;;18.35;11.73;;;5.70;66.90;;;;;;5046407;28;20029;-76
2022/03/12 03:26:05;;;;;;;15.88;9.07;;;5.70;67.00;;;;;;5033062;28;20498;-75
2022/03/12 03:28:31;;;;;;;11.63;9.02;;;5.70;67.00;;;;;;5030757;28;20071;-76
2022/03/12 03:30:56;;;;;;;12.90;8.90;;;5.50;67.50;;;;;;5034002;28;20030;-76
2022/03/12 03:33:24;;;;;;;13.57;9.80;;;5.50;68.00;;;;;;5033675;28;20033;-76
2022/03/12 03:35:51;;;;;;;14.18;8.98;;;5.50;68.00;;;;;;5031379;28;20075;-77
2022/03/12 03:38:17;;;;;;;12.13;9.63;;;5.50;67.70;;;;;;5018580;28;20025;-75
2022/03/12 03:40:44;;;;;;;10.20;7.93;;;5.40;68.10;;;;;;5031284;28;20037;-77
2022/03/12 03:43:13;;;;;;;12.57;9.90;;;5.40;68.40;;;;;;5032603;28;20076;-76
2022/03/12 03:45:40;;;;;;;13.50;9.07;;;5.50;68.00;;;;;;5048571;28;20026;-76
2022/03/12 03:48:12;;;;;;;11.38;8.25;;;5.60;68.10;;;;;;5028554;28;20060;-75
2022/03/12 03:50:37;;;;;;;12.05;9.63;;;5.60;68.70;;;;;;5031921;28;20076;-75
2022/03/12 03:53:03;;;;;;;11.40;8.27;;;5.60;68.30;;;;;;5020113;28;20033;-75
2022/03/12 03:55:33;;;;;;;12.93;9.73;;;5.60;68.40;;;;;;5030269;28;20030;-76
2022/03/12 03:58:00;;;;;;;16.67;10.20;;;5.70;68.30;;;;;;5032956;28;20513;-76
2022/03/12 04:00:27;;;;;;;11.70;8.68;;;5.60;68.40;;;;;;5033119;28;20038;-76
2022/03/12 04:03:04;;;;;;;13.77;9.38;;;5.50;68.80;;;;;;5033124;28;20057;-76
2022/03/12 04:05:30;;;;;;;14.00;8.85;;;5.40;69.40;;;;;;5032617;28;20018;-76
2022/03/12 04:07:55;;;;;;;11.88;9.20;;;5.40;69.50;;;;;;5031735;28;20109;-76
2022/03/12 04:10:21;;;;;;;12.15;9.23;;;5.30;69.80;;;;;;5031770;28;20033;-76
2022/03/12 04:12:46;;;;;;;14.43;9.45;;;5.30;69.80;;;;;;5033304;28;20403;-76
2022/03/12 04:15:12;;;;;;;11.93;7.82;;;5.10;70.00;;;;;;5042565;28;20398;-76
2022/03/12 04:17:38;;;;;;;11.05;8.82;;;5.20;70.10;;;;;;5033093;28;20113;-77
2022/03/12 04:20:04;;;;;;;13.73;8.98;;;5.20;69.70;;;;;;5027100;28;20032;-76
2022/03/12 04:22:31;;;;;;;15.05;9.35;;;5.20;69.90;;;;;;5027501;28;20060;-77
2022/03/12 04:24:57;;;;;;;13.48;8.15;;;5.20;69.70;;;;;;5022535;28;20100;-76
2022/03/12 04:27:23;;;;;;;15.00;8.80;;;5.20;69.50;;;;;;5030016;28;20025;-76
2022/03/12 04:29:49;;;;;;;14.32;9.30;;;5.10;69.80;;;;;;5033205;28;20078;-75
2022/03/12 04:32:16;;;;;;;11.07;8.60;;;5.00;69.90;;;;;;5032556;28;20029;-76
2022/03/12 04:34:42;;;;;;;12.52;8.93;;;5.10;69.90;;;;;;5031998;28;20010;-75
2022/03/12 04:37:07;;;;;;;10.82;8.18;;;5.10;70.00;;;;;;5032178;28;20026;-75
2022/03/12 04:39:34;;;;;;;10.60;8.82;;;5.10;69.70;;;;;;5032203;28;20028;-76
2022/03/12 04:42:00;;;;;;;13.07;9.73;;;5.10;69.90;;;;;;5037243;28;20512;-76
2022/03/12 04:44:26;;;;;;;13.80;9.15;;;4.90;70.10;;;;;;5047588;28;20025;-75
2022/03/12 04:46:51;;;;;;;11.18;8.63;;;4.60;70.70;;;;;;5050846;28;20060;-76
2022/03/12 04:49:18;;;;;;;15.38;9.05;;;4.50;71.30;;;;;;5040144;28;20037;-76
2022/03/12 04:51:44;;;;;;;15.65;8.75;;;4.50;71.30;;;;;;5038436;28;20029;-77
2022/03/12 04:54:09;;;;;;;13.27;9.15;;;4.60;71.30;;;;;;5027371;28;20022;-76
2022/03/12 04:56:35;;;;;;;10.57;8.05;;;4.60;71.30;;;;;;5031531;28;20018;-77
2022/03/12 04:59:01;;;;;;;11.38;8.60;;;4.90;70.40;;;;;;5027680;28;20564;-76
2022/03/12 05:01:28;;;;;;;10.25;8.05;;;4.90;70.10;;;;;;5030686;28;20060;-76
2022/03/12 05:03:54;;;;;;;11.13;8.52;;;4.90;70.00;;;;;;5025951;28;20050;-75
2022/03/12 05:06:19;;;;;;;10.48;8.18;;;4.90;70.20;;;;;;5030134;28;20045;-76
2022/03/12 05:08:46;;;;;;;13.65;8.52;;;4.80;69.90;;;;;;5031730;28;20571;-76
2022/03/12 05:11:11;;;;;;;11.50;8.90;;;4.70;70.30;;;;;;5027338;28;20467;-76
2022/03/12 05:13:37;;;;;;;10.32;8.45;;;4.80;70.40;;;;;;5032491;28;20029;-76
2022/03/12 05:16:06;;;;;;;14.70;9.10;;;4.80;70.20;;;;;;5032232;28;20029;-76
2022/03/12 05:18:33;;;;;;;9.65;8.10;;;4.70;70.60;;;;;;5026608;28;20021;-76
2022/03/12 05:20:59;;;;;;;14.02;9.23;;;4.70;70.70;;;;;;5025092;28;20071;-76
2022/03/12 05:23:25;;;;;;;11.93;9.77;;;4.60;70.90;;;;;;5031649;28;20021;-76
2022/03/12 05:25:52;;;;;;;14.93;9.05;;;4.60;71.20;;;;;;5040469;28;20071;-76
2022/03/12 05:28:28;;;;;;;14.40;8.68;;;4.60;71.20;;;;;;5029700;28;20486;-76
2022/03/12 05:30:56;;;;;;;10.98;8.57;;;4.60;71.40;;;;;;5030502;28;20030;-76
2022/03/12 05:33:22;;;;;;;12.15;8.30;;;4.60;71.10;;;;;;5022780;28;20034;-76
2022/03/12 05:35:53;;;;;;;11.73;8.35;;;4.60;71.10;;;;;;5031429;28;20048;-76
2022/03/12 05:38:19;;;;;;;11.75;8.40;;;4.60;71.10;;;;;;5030745;28;20061;-75
2022/03/12 05:40:47;;;;;;;13.40;8.77;;;4.80;70.90;;;;;;5029859;28;20064;-76
2022/03/12 05:43:15;;;;;;;14.75;9.45;;;5.00;70.40;;;;;;5033474;28;20026;-76
2022/03/12 05:45:45;;;;;;;12.70;9.65;;;4.90;70.50;;;;;;5030017;28;20500;-77
2022/03/12 05:48:12;;;;;;;14.73;8.88;;;4.90;71.10;;;;;;5031304;28;20636;-77
2022/03/12 05:50:39;;;;;;;11.57;7.88;;;5.10;70.00;;;;;;5032502;28;20108;-76
2022/03/12 05:53:08;;;;;;;10.45;8.95;;;5.30;69.70;;;;;;5041724;28;20033;-77
2022/03/12 05:55:39;;;;;;;12.23;8.55;;;5.40;69.50;;;;;;5022468;28;20025;-76
2022/03/12 05:58:05;;;;;;;;;;;5.40;69.50;;;;;;5046918;28;20040;-76
2022/03/12 06:00:32;;;;;;;13.23;8.82;;;5.20;70.10;;;;;;5031234;28;19921;-76
2022/03/12 06:02:59;;;;;;;14.35;8.80;;;5.10;71.10;;;;;;5042424;28;20026;-75
2022/03/12 06:05:26;;;;;;;13.43;8.10;;;4.90;70.80;;;;;;5038704;28;20041;-76
2022/03/12 06:07:52;;;;;;;11.40;8.40;;;5.10;70.40;;;;;;5035767;28;20138;-76
2022/03/12 06:10:28;;;;;;;13.38;9.02;;;5.20;69.90;;;;;;5034801;28;20110;-76
2022/03/12 06:12:53;;;;;;;16.80;7.93;;;5.20;69.50;;;;;;5034694;28;20049;-76
2022/03/12 06:15:22;;;;;;;14.10;9.38;;;5.10;70.20;;;;;;5042353;28;20072;-76
2022/03/12 06:17:49;;;;;;;13.02;9.10;;;4.90;70.00;;;;;;5035277;28;20478;-76
2022/03/12 06:20:22;;;;;;;12.48;8.77;;;5.00;69.70;;;;;;5035785;28;20041;-76
2022/03/12 06:22:49;;;;;;;20.60;9.38;;;5.10;69.10;;;;;;5035812;28;20048;-76
2022/03/12 06:25:16;;;;;;;11.43;8.35;;;5.30;68.00;;;;;;5045250;28;20457;-76
2022/03/12 06:27:43;;;;;;;17.17;8.73;;;5.50;68.00;;;;;;5026531;28;20080;-75
2022/03/12 06:30:12;;;;;;;10.07;8.18;;;5.60;67.80;;;;;;5027244;28;20477;-76
2022/03/12 06:32:42;;;;;;;9.68;7.90;;;5.60;67.60;;;;;;5050455;28;20036;-76
2022/03/12 06:35:08;;;;;;;9.85;7.57;;;5.70;67.50;;;;;;5045782;28;20056;-76
2022/03/12 06:37:34;;;;;;;13.30;7.72;;;5.70;67.50;;;;;;5035317;28;20022;-77
2022/03/12 06:40:00;;;;;;;8.82;7.63;;;5.70;67.00;;;;;;5035141;28;20025;-75
2022/03/12 06:42:27;;;;;;;16.08;8.27;;;5.70;67.00;;;;;;5044631;28;20768;-76
2022/03/12 06:44:55;;;;;;;14.52;8.80;;;5.80;66.70;;;;;;5034853;28;20014;-77
2022/03/12 06:47:24;;;;;;;14.43;9.18;;;5.80;66.80;;;;;;5035146;28;20478;-77
2022/03/12 06:49:49;;;;;;;9.68;8.57;;;5.90;67.10;;;;;;5035266;28;20139;-76
2022/03/12 06:52:15;;;;;;;12.63;8.05;;;6.00;66.40;;;;;;5031481;28;20068;-77
2022/03/12 06:54:41;;;;;;;15.23;7.97;;;6.00;66.40;;;;;;5034866;28;20536;-76
2022/03/12 06:57:06;;;;;;;10.85;7.93;;;5.90;66.30;;;;;;5049357;28;20028;-77
2022/03/12 06:59:32;;;;;;;11.20;8.70;;;5.90;66.50;;;;;;5034660;28;20025;-76
2022/03/12 07:01:58;;;;;;;16.90;8.85;;;5.70;67.00;;;;;;5032981;28;20107;-78
2022/03/12 07:04:26;;;;;;;12.38;8.57;;;5.60;68.20;;;;;;5032794;28;20383;-78
2022/03/12 07:06:52;;;;;;;13.95;7.93;;;5.80;67.30;;;;;;5048929;28;20025;-77
2022/03/12 07:09:18;;;;;;;11.93;8.98;;;6.10;66.50;;;;;;5034685;28;20032;-76
2022/03/12 07:11:43;;;;;;;13.45;8.77;;;6.10;66.20;;;;;;5034884;28;20100;-76
2022/03/12 07:14:10;;;;;;;16.20;7.88;;;6.30;65.80;;;;;;5027703;28;20104;-76
2022/03/12 07:16:35;;;;;;;10.50;8.40;;;6.30;65.60;;;;;;5033590;28;20121;-76
2022/03/12 07:19:01;;;;;;;11.35;8.98;;;6.30;65.60;;;;;;5034638;28;20112;-76
2022/03/12 07:21:28;;;;;;;11.27;8.55;;;6.30;65.70;;;;;;5027387;28;20031;-78
2022/03/12 07:23:54;;;;;;;12.20;8.90;;;6.40;65.40;;;;;;5033999;28;20647;-76
2022/03/12 07:26:20;;;;;;;10.55;7.80;;;6.50;65.20;;;;;;5032027;28;20034;-75
2022/03/12 07:28:47;;;;;;;15.05;9.38;;;6.60;64.80;;;;;;5031019;28;20026;-75
2022/03/12 07:31:15;;;;;;;9.77;8.52;;;6.60;64.90;;;;;;5034339;28;20044;-76
2022/03/12 07:33:41;;;;;;;11.65;8.40;;;6.70;64.80;;;;;;5034229;28;20071;-76
2022/03/12 07:36:06;;;;;;;11.73;7.85;;;6.70;64.40;;;;;;5033146;28;20033;-76
2022/03/12 07:38:32;;;;;;;10.18;8.52;;;6.70;64.40;;;;;;5033741;28;20033;-76
2022/03/12 07:40:58;;;;;;;11.35;8.95;;;6.80;64.50;;;;;;5033546;28;20029;-78
2022/03/12 07:43:24;;;;;;;26.42;12.65;;;6.80;64.50;;;;;;5031377;28;20041;-76
2022/03/12 07:45:49;;;;;;;12.80;8.73;;;6.90;64.70;;;;;;5049596;28;20052;-80
2022/03/12 07:48:15;;;;;;;11.10;9.63;;;6.90;64.50;;;;;;5050807;28;20091;-80
2022/03/12 07:50:43;;;;;;;13.35;8.82;;;7.00;64.70;;;;;;5051012;28;20033;-79
2022/03/12 07:53:09;;;;;;;15.35;8.30;;;7.10;64.20;;;;;;5056441;28;20084;-80
2022/03/12 07:55:34;;;;;;;15.73;8.80;;;7.10;64.20;;;;;;5043308;28;20021;-79
2022/03/12 07:58:00;;;;;;;9.73;7.80;;;7.10;64.40;;;;;;5039711;28;20025;-79
2022/03/12 08:00:28;;;;;;;17.50;8.80;;;7.20;63.60;;;;;;5045072;28;20037;-82
2022/03/12 08:02:54;;;;;;;12.50;9.32;;;7.30;63.30;;;;;;5042970;28;20045;-80
2022/03/12 08:05:23;;;;;;;13.75;9.25;;;7.30;63.50;;;;;;5043151;28;20055;-80
2022/03/12 08:07:50;;;;;;;17.55;8.95;;;7.40;63.30;;;;;;5033345;28;20049;-79
2022/03/12 08:10:15;;;;;;;13.68;10.10;;;7.40;63.20;;;;;;5038455;28;20029;-80
2022/03/12 08:12:41;;;;;;;11.95;9.57;;;7.50;63.10;;;;;;5041719;28;20084;-78
2022/03/12 08:15:08;;;;;;;12.30;9.48;;;7.60;63.10;;;;;;5041653;28;20022;-80
2022/03/12 08:17:34;;;;;;;10.13;8.93;;;7.70;62.90;;;;;;5051619;28;20053;-79
2022/03/12 08:19:59;;;;;;;12.88;9.00;;;7.70;62.50;;;;;;5058135;28;20029;-81
2022/03/12 08:22:26;;;;;;;10.52;7.90;;;7.90;62.90;;;;;;5031855;28;20029;-81
2022/03/12 08:24:52;;;;;;;14.10;9.13;;;7.90;63.10;;;;;;5041481;28;20083;-80
2022/03/12 08:27:18;;;;;;;11.95;8.75;;;7.80;63.20;;;;;;5041881;28;20296;-81
2022/03/12 08:29:44;;;;;;;18.08;9.13;;;7.90;63.30;;;;;;5036690;28;20021;-80
2022/03/12 08:32:11;;;;;;;12.88;10.02;;;7.80;64.10;;;;;;5044117;28;20040;-79
2022/03/12 08:34:36;;;;;;;16.02;10.38;;;7.80;64.20;;;;;;5032377;28;20026;-78
2022/03/12 08:37:06;;;;;;;14.85;10.48;;;7.80;64.10;;;;;;5051939;28;20033;-78
2022/03/12 08:39:32;;;;;;;14.35;10.68;;;8.20;63.40;;;;;;5051210;28;20052;-78
2022/03/12 08:41:58;;;;;;;12.38;10.52;;;8.60;62.40;;;;;;5050809;28;20033;-80
2022/03/12 08:44:23;;;;;;;14.07;10.65;;;8.80;61.90;;;;;;5032923;28;20026;-79
2022/03/12 08:46:49;;;;;;;13.02;10.57;;;8.90;61.90;;;;;;5022341;28;20604;-79
2022/03/12 08:49:16;;;;;;;15.52;10.55;;;8.90;61.50;;;;;;5049037;28;20034;-79
2022/03/12 08:51:42;;;;;;;15.43;10.98;;;8.90;61.50;;;;;;5043921;28;20029;-76
2022/03/12 08:54:08;;;;;;;13.63;10.50;;;9.10;61.80;;;;;;5032777;28;20030;-79
2022/03/12 08:56:34;;;;;;;13.45;10.82;;;9.30;61.00;;;;;;5053040;28;20074;-76
2022/03/12 08:59:00;;;;;;;15.60;11.27;;;9.30;61.20;;;;;;5054026;28;20043;-78
2022/03/12 09:01:26;;;;;;;12.63;10.30;;;9.30;61.10;;;;;;5047291;28;20036;-77
2022/03/12 09:03:51;;;;;;;14.15;11.10;;;9.50;61.00;;;;;;5023916;28;20021;-77
2022/03/12 09:06:17;;;;;;;13.65;9.75;;;9.60;61.10;;;;;;5046064;28;20401;-77
2022/03/12 09:08:45;;;;;;;13.43;9.88;;;9.60;60.70;;;;;;5046142;28;20108;-78
2022/03/12 09:11:13;;;;;;;11.68;9.82;;;9.80;60.50;;;;;;5022912;28;20057;-79
2022/03/12 09:13:39;;;;;;;11.93;9.82;;;9.90;60.50;;;;;;5034956;28;20060;-77
2022/03/12 09:16:05;;;;;;;16.48;11.63;;;10.00;60.40;;;;;;5029594;28;20061;-77
2022/03/12 09:18:31;;;;;;;13.60;10.20;;;10.20;60.60;;;;;;5045440;28;20105;-77
2022/03/12 09:20:56;;;;;;;18.70;11.65;;;10.40;60.10;;;;;;5034209;28;20034;-77
2022/03/12 09:23:22;;;;;;;12.15;10.55;;;10.40;59.70;;;;;;5034190;28;20064;-77
2022/03/12 09:25:50;;;;;;;13.05;10.52;;;10.40;59.80;;;;;;5032209;28;20033;-77
2022/03/12 09:28:19;;;;;;;11.55;9.60;;;10.40;59.80;;;;;;5043168;28;20032;-78
2022/03/12 09:30:50;;;;;;;15.68;10.50;;;10.40;59.70;;;;;;5048881;28;20037;-77
2022/03/12 09:33:17;;;;;;;16.27;10.75;;;10.40;60.00;;;;;;5043263;28;20453;-77
2022/03/12 09:35:43;;;;;;;14.07;10.93;;;10.40;60.30;;;;;;5033512;28;20010;-77
2022/03/12 09:38:09;;;;;;;16.33;10.55;;;10.60;59.70;;;;;;5053266;28;20032;-77
2022/03/12 09:40:35;;;;;;;12.65;10.60;;;10.60;59.80;;;;;;5026313;28;20022;-77
2022/03/12 09:43:02;;;;;;;16.83;11.10;;;10.60;59.80;;;;;;5035209;28;20022;-77
2022/03/12 09:45:28;;;;;;;21.45;11.25;;;10.80;59.50;;;;;;5031933;28;20078;-80
2022/03/12 09:47:54;;;;;;;14.35;12.30;;;10.80;59.30;;;;;;5036311;28;20097;-77
2022/03/12 09:50:20;;;;;;;21.98;11.63;;;10.80;59.60;;;;;;5030142;28;20561;-77
2022/03/12 09:52:46;;;;;;;20.23;11.45;;;10.90;59.90;;;;;;5040157;28;20125;-78
2022/03/12 09:55:12;;;;;;;14.80;11.48;;;11.00;59.70;;;;;;5027593;28;20049;-78
2022/03/12 09:57:38;;;;;;;14.02;11.43;;;11.00;59.50;;;;;;5052432;28;20021;-78
2022/03/12 10:00:05;;;;;;;19.77;11.18;;;11.20;59.40;;;;;;5037654;28;20044;-77
2022/03/12 10:02:31;;;;;;;16.00;12.15;;;11.30;59.30;;;;;;5030622;28;20048;-78
2022/03/12 10:04:57;;;;;;;20.20;12.20;;;11.40;59.30;;;;;;5039178;28;20021;-78
2022/03/12 10:07:23;;;;;;;14.48;11.70;;;11.40;59.00;;;;;;5046015;28;20026;-78
2022/03/12 10:09:49;;;;;;;19.67;11.82;;;11.40;59.30;;;;;;5048159;28;20028;-78
2022/03/12 10:12:15;;;;;;;17.27;11.57;;;11.50;59.50;;;;;;5033204;28;20112;-77
2022/03/12 10:14:40;;;;;;;16.27;12.75;;;11.60;59.60;;;;;;5051729;28;20021;-77
2022/03/12 10:17:06;;;;;;;17.38;11.82;;;11.80;59.40;;;;;;5033552;28;20021;-77
2022/03/12 10:19:36;;;;;;;16.42;11.68;;;11.90;59.10;;;;;;5043858;28;20478;-77
2022/03/12 10:22:02;;;;;;;16.30;12.43;;;12.00;59.10;;;;;;5040038;28;20057;-77
2022/03/12 10:24:28;;;;;;;17.05;13.02;;;12.10;59.10;;;;;;5030194;28;20026;-77
2022/03/12 10:26:54;;;;;;;15.00;12.07;;;12.10;58.80;;;;;;5029239;28;20512;-77
2022/03/12 10:29:20;;;;;;;19.63;12.40;;;12.30;59.10;;;;;;5029862;28;20440;-78
2022/03/12 10:31:46;;;;;;;18.90;12.40;;;12.30;58.90;;;;;;5028576;28;20025;-78
2022/03/12 10:34:21;;;;;;;16.50;12.23;;;12.30;59.20;;;;;;5041365;28;20026;-78
2022/03/12 10:36:53;;;;;;;15.55;11.52;;;12.40;59.10;;;;;;5038905;28;20377;-78
2022/03/12 10:39:33;;;;;;;16.27;12.10;;;12.40;59.10;;;;;;5034606;28;20072;-78
2022/03/12 10:42:07;;;;;;;16.55;11.95;;;12.50;58.80;;;;;;5026916;28;20026;-78
2022/03/12 10:44:40;;;;;;;19.10;13.48;;;12.50;59.70;;;;;;5038895;28;20075;-78
2022/03/12 10:47:22;;;;;;;18.60;12.63;;;12.60;59.50;;;;;;5034077;28;20029;-79
2022/03/12 10:50:02;;;;;;;20.38;12.93;;;12.80;59.70;;;;;;5036756;28;20028;-78
2022/03/12 10:52:29;;;;;;;14.88;11.82;;;12.70;60.30;;;;;;5033234;28;20017;-78
2022/03/12 10:54:55;;;;;;;13.65;11.52;;;12.70;61.00;;;;;;5033428;28;20032;-78
2022/03/12 10:57:21;;;;;;;16.02;11.98;;;12.80;60.60;;;;;;5037099;28;20018;-77
2022/03/12 10:59:51;;;;;;;14.75;12.40;;;13.00;60.70;;;;;;5057560;28;20402;-79
2022/03/12 11:02:17;;;;;;;13.48;11.95;;;13.40;60.40;;;;;;5034113;28;20095;-76
2022/03/12 11:04:42;;;;;;;16.50;11.82;;;13.40;61.00;;;;;;5042982;28;20009;-78
2022/03/12 11:07:25;;;;;;;13.75;11.73;;;13.90;61.00;;;;;;5042649;28;20079;-77
2022/03/12 11:09:53;;;;;;;13.32;10.85;;;13.80;61.30;;;;;;5038782;28;20063;-77
2022/03/12 11:12:29;;;;;;;15.52;11.30;;;14.00;62.00;;;;;;5030173;28;20034;-77
2022/03/12 11:15:04;;;;;;;14.65;10.43;;;13.90;62.20;;;;;;5054928;28;20029;-79
2022/03/12 11:17:44;;;;;;;12.85;10.95;;;13.90;62.70;;;;;;5029963;28;20077;-77
2022/03/12 11:20:28;;;;;;;14.30;10.90;;;13.70;62.70;;;;;;5035953;28;20040;-77
2022/03/12 11:23:07;;;;;;;15.45;11.85;;;13.60;63.10;;;;;;5035075;28;20013;-77
2022/03/12 11:25:36;;;;;;;15.80;10.98;;;13.70;62.20;;;;;;5030923;28;20028;-77
2022/03/12 11:28:18;;;;;;;12.35;10.45;;;13.80;63.00;;;;;;5038310;28;20021;-78
2022/03/12 11:30:44;;;;;;;15.82;11.30;;;14.00;62.50;;;;;;5033715;28;20100;-78
2022/03/12 11:33:09;;;;;;;15.57;11.73;;;14.10;61.50;;;;;;5044164;28;20029;-78
2022/03/12 11:35:37;;;;;;;12.85;11.40;;;14.10;61.50;;;;;;5054912;28;20117;-77
2022/03/12 11:38:18;;;;;;;16.67;11.95;;;14.30;61.90;;;;;;5040554;28;20025;-78
2022/03/12 11:41:04;;;;;;;14.27;11.57;;;14.50;61.50;;;;;;5044426;28;20105;-77
2022/03/12 11:43:34;;;;;;;13.52;9.40;;;14.70;61.60;;;;;;5031238;28;20033;-77
2022/03/12 11:46:00;;;;;;;11.50;10.30;;;14.50;62.50;;;;;;5047564;28;20022;-77
2022/03/12 11:48:27;;;;;;;16.00;11.02;;;14.50;62.50;;;;;;5033410;28;20022;-78
2022/03/12 11:50:53;;;;;;;15.38;11.57;;;14.30;62.50;;;;;;5025134;28;20032;-79
2022/03/12 11:53:19;;;;;;;15.05;10.95;;;14.40;62.20;;;;;;5035903;28;20037;-77
2022/03/12 11:55:51;;;;;;;15.23;11.77;;;14.30;62.70;;;;;;5024700;28;20022;-78
2022/03/12 11:58:18;;;;;;;13.70;11.18;;;14.40;62.40;;;;;;5056080;28;20474;-76
2022/03/12 12:00:46;;;;;;;16.35;13.07;;;14.50;62.50;;;;;;5030532;28;20108;-78
2022/03/12 12:03:16;;;;;;;12.25;11.05;;;14.70;61.90;;;;;;5063343;28;20021;-77
2022/03/12 12:05:43;;;;;;;13.25;9.82;;;14.60;61.90;;;;;;5047055;28;20044;-77
2022/03/12 12:08:12;;;;;;;11.00;9.90;;;14.90;62.40;;;;;;5034553;28;20087;-79
2022/03/12 12:10:41;;;;;;;12.68;10.18;;;14.90;63.00;;;;;;5040602;28;20029;-78
2022/03/12 12:13:08;;;;;;;11.60;10.40;;;15.10;63.40;;;;;;5049508;28;20022;-76
2022/03/12 12:15:36;;;;;;;15.45;11.63;;;14.90;62.70;;;;;;5057855;28;20020;-80
2022/03/12 12:18:03;;;;;;;14.45;11.43;;;14.80;62.40;;;;;;5047385;28;20097;-77
2022/03/12 12:20:30;;;;;;;14.20;11.30;;;15.00;62.50;;;;;;5053274;28;20033;-77
2022/03/12 12:22:58;;;;;;;12.48;11.07;;;15.10;62.30;;;;;;5057233;28;20037;-77
2022/03/12 12:25:25;;;;;;;15.10;10.75;;;14.80;62.30;;;;;;5074439;28;20025;-77
2022/03/12 12:27:54;;;;;;;10.75;8.52;;;14.70;62.60;;;;;;5057432;28;20044;-77
2022/03/12 12:30:38;;;;;;;7.55;6.78;;;15.00;64.90;;;;;;5057083;28;20017;-77
2022/03/12 12:33:18;;;;;;;9.63;7.78;;;15.00;67.00;;;;;;5047543;28;20029;-78
2022/03/12 12:35:46;;;;;;;9.77;8.32;;;15.10;67.20;;;;;;5048967;28;20040;-75
2022/03/12 12:38:14;;;;;;;10.05;8.93;;;15.00;66.20;;;;;;5035744;28;20077;-82
2022/03/12 12:40:51;;;;;;;10.90;9.13;;;14.90;66.10;;;;;;5053448;28;20057;-79
2022/03/12 12:43:31;;;;;;;11.52;9.48;;;15.00;66.30;;;;;;5050204;28;20014;-80